createdAt,value
2018-07-09T00:02:13.704Z,22.70
2018-07-09T00:04:45.444Z,22.70
2018-07-09T00:07:17.584Z,22.60
2018-07-09T00:09:50.124Z,22.60
2018-07-09T00:12:22.544Z,22.70
2018-07-09T00:14:54.264Z,22.60
2018-07-09T00:17:25.885Z,22.50
2018-07-09T00:19:57.544Z,22.50
2018-07-09T00:22:28.957Z,22.50
2018-07-09T00:25:00.637Z,22.50
2018-07-09T00:27:32.954Z,22.40
2018-07-09T00:30:04.354Z,22.30
2018-07-09T00:32:36.214Z,22.40
2018-07-09T00:37:40.194Z,22.20
2018-07-09T00:40:11.955Z,22.20
2018-07-09T00:42:44.194Z,22.00
2018-07-09T00:45:16.214Z,22.00
2018-07-09T00:47:48.414Z,22.10
2018-07-09T00:50:20.994Z,22.10
2018-07-09T00:52:53.734Z,22.10
2018-07-09T00:55:25.454Z,22.00
2018-07-09T00:57:58.093Z,22.00
2018-07-09T01:00:29.594Z,22.00
2018-07-09T01:03:02.096Z,22.00
2018-07-09T01:05:34.833Z,21.90
2018-07-09T01:08:06.874Z,21.90
2018-07-09T01:10:46.134Z,21.80
2018-07-09T01:13:18.174Z,21.70
2018-07-09T01:15:49.734Z,21.70
2018-07-09T01:18:22.074Z,21.70
2018-07-09T01:20:54.374Z,21.70
2018-07-09T01:23:26.774Z,21.60
2018-07-09T01:25:59.414Z,21.60
2018-07-09T01:28:32.774Z,21.60
2018-07-09T01:31:04.937Z,21.50
2018-07-09T01:33:36.614Z,21.50
2018-07-09T01:36:08.716Z,21.60
2018-07-09T01:38:40.354Z,21.60
2018-07-09T01:41:12.954Z,21.60
2018-07-09T01:43:44.874Z,21.60
2018-07-09T01:46:15.954Z,21.60
2018-07-09T01:48:47.834Z,21.50
2018-07-09T01:51:19.434Z,21.50
2018-07-09T01:53:51.214Z,21.50
2018-07-09T01:56:23.154Z,21.40
2018-07-09T01:58:56.154Z,21.30
2018-07-09T02:03:59.497Z,21.20
2018-07-09T02:06:31.533Z,21.10
2018-07-09T02:09:03.480Z,21.10
2018-07-09T02:11:35.754Z,21.00
2018-07-09T02:14:08.014Z,21.00
2018-07-09T02:16:39.394Z,21.00
2018-07-09T02:19:12.134Z,21.00
2018-07-09T02:21:43.894Z,20.90
2018-07-09T02:24:16.054Z,20.90
2018-07-09T02:26:48.594Z,20.80
2018-07-09T02:29:20.154Z,20.80
2018-07-09T02:31:53.017Z,20.80
2018-07-09T02:34:24.500Z,20.70
2018-07-09T02:36:56.596Z,20.70
2018-07-09T02:39:28.694Z,20.70
2018-07-09T02:42:00.575Z,20.70
2018-07-09T02:44:32.494Z,20.70
2018-07-09T02:47:04.335Z,20.70
2018-07-09T02:49:37.440Z,20.70
2018-07-09T02:52:09.075Z,20.60
2018-07-09T02:54:41.055Z,20.60
2018-07-09T02:57:13.475Z,20.50
2018-07-09T02:59:46.154Z,20.50
2018-07-09T03:02:19.135Z,20.50
2018-07-09T03:04:51.782Z,20.60
2018-07-09T03:07:23.635Z,20.50
2018-07-09T03:09:56.275Z,20.50
2018-07-09T03:12:28.515Z,20.50
2018-07-09T03:15:00.635Z,20.50
2018-07-09T03:17:32.715Z,20.50
2018-07-09T03:20:04.676Z,20.40
2018-07-09T03:22:37.275Z,20.40
2018-07-09T03:25:09.495Z,20.30
2018-07-09T03:27:41.035Z,20.30
2018-07-09T03:30:14.058Z,20.20
2018-07-09T03:32:45.335Z,20.20
2018-07-09T03:35:17.878Z,20.20
2018-07-09T03:37:50.075Z,20.20
2018-07-09T03:40:21.818Z,20.30
2018-07-09T03:42:53.855Z,20.30
2018-07-09T03:45:25.814Z,20.30
2018-07-09T03:47:57.703Z,20.20
2018-07-09T03:50:29.275Z,20.20
2018-07-09T03:53:01.635Z,20.10
2018-07-09T03:55:33.435Z,20.10
2018-07-09T03:58:05.755Z,20.00
2018-07-09T04:00:37.595Z,20.00
2018-07-09T04:03:09.975Z,20.00
2018-07-09T04:05:42.214Z,20.00
2018-07-09T04:08:13.914Z,20.00
2018-07-09T04:10:46.094Z,20.10
2018-07-09T04:13:18.075Z,20.00
2018-07-09T04:15:50.655Z,20.00
2018-07-09T04:18:25.435Z,20.00
2018-07-09T04:20:58.101Z,19.90
2018-07-09T04:23:30.481Z,19.90
2018-07-09T04:26:01.955Z,19.90
2018-07-09T04:28:34.115Z,19.90
2018-07-09T04:31:06.095Z,19.90
2018-07-09T04:33:38.275Z,19.90
2018-07-09T04:36:10.118Z,19.90
2018-07-09T04:38:42.136Z,19.90
2018-07-09T04:41:13.696Z,20.00
2018-07-09T04:43:46.075Z,20.10
2018-07-09T04:46:15.843Z,20.00
2018-07-09T04:48:47.695Z,20.00
2018-07-09T04:51:20.234Z,20.00
2018-07-09T04:53:52.935Z,20.00
2018-07-09T04:56:24.383Z,20.00
2018-07-09T04:58:56.615Z,20.00
2018-07-09T05:01:27.838Z,19.90
2018-07-09T05:04:00.435Z,20.00
2018-07-09T05:06:32.835Z,19.90
2018-07-09T05:09:05.757Z,19.90
2018-07-09T05:11:38.015Z,19.90
2018-07-09T05:14:10.075Z,19.90
2018-07-09T05:16:42.175Z,19.90
2018-07-09T05:19:14.475Z,20.00
2018-07-09T05:21:46.715Z,20.10
2018-07-09T05:24:19.156Z,20.20
2018-07-09T05:26:51.734Z,20.20
2018-07-09T05:29:23.535Z,20.30
2018-07-09T05:31:55.875Z,20.30
2018-07-09T05:34:28.115Z,20.40
2018-07-09T05:37:00.036Z,20.40
2018-07-09T05:39:33.074Z,20.50
2018-07-09T05:42:06.064Z,20.50
2018-07-09T05:44:38.294Z,20.60
2018-07-09T05:47:10.035Z,20.70
2018-07-09T05:49:42.015Z,20.80
2018-07-09T05:52:14.235Z,20.90
2018-07-09T05:54:47.454Z,21.00
2018-07-09T05:57:19.235Z,21.00
2018-07-09T05:59:51.854Z,21.10
2018-07-09T06:02:23.874Z,21.20
2018-07-09T06:04:55.635Z,21.30
2018-07-09T06:07:28.015Z,21.40
2018-07-09T06:10:00.236Z,21.40
2018-07-09T06:12:32.494Z,21.60
2018-07-09T06:15:04.977Z,21.70
2018-07-09T06:17:36.436Z,21.80
2018-07-09T06:20:09.594Z,22.00
2018-07-09T06:22:41.675Z,22.10
2018-07-09T06:25:13.295Z,22.20
2018-07-09T06:27:46.294Z,22.40
2018-07-09T06:30:18.235Z,22.40
2018-07-09T06:32:50.535Z,22.50
2018-07-09T06:35:23.795Z,22.50
2018-07-09T06:37:55.995Z,22.60
2018-07-09T06:40:28.254Z,22.70
2018-07-09T06:43:00.315Z,22.80
2018-07-09T06:45:32.616Z,23.00
2018-07-09T06:48:04.374Z,23.20
2018-07-09T06:50:36.536Z,23.30
2018-07-09T06:53:08.055Z,23.50
2018-07-09T06:55:39.682Z,23.60
2018-07-09T06:58:12.115Z,23.70
2018-07-09T07:00:44.457Z,23.70
2018-07-09T07:03:16.194Z,23.70
2018-07-09T07:05:47.634Z,23.70
2018-07-09T07:08:19.997Z,23.80
2018-07-09T07:10:52.537Z,23.80
2018-07-09T07:13:25.020Z,23.90
2018-07-09T07:15:57.615Z,24.00
2018-07-09T07:18:29.665Z,24.00
2018-07-09T07:21:01.683Z,23.90
2018-07-09T07:23:33.826Z,23.90
2018-07-09T07:26:06.244Z,23.80
2018-07-09T07:28:38.044Z,23.90
2018-07-09T07:31:09.584Z,24.00
2018-07-09T07:33:42.064Z,24.00
2018-07-09T07:36:13.764Z,24.20
2018-07-09T07:38:45.764Z,24.10
2018-07-09T07:41:16.968Z,24.10
2018-07-09T07:43:48.543Z,24.10
2018-07-09T07:46:20.344Z,24.10
2018-07-09T07:48:52.388Z,24.00
2018-07-09T07:51:24.505Z,24.10
2018-07-09T07:53:56.644Z,24.10
2018-07-09T07:56:27.823Z,24.10
2018-07-09T07:58:59.980Z,24.10
2018-07-09T08:01:32.545Z,24.10
2018-07-09T08:04:04.121Z,24.20
2018-07-09T08:06:36.360Z,24.30
2018-07-09T08:09:08.139Z,24.30
2018-07-09T08:11:48.552Z,24.40
2018-07-09T08:14:12.319Z,24.40
2018-07-09T08:16:44.218Z,24.30
2018-07-09T08:19:16.500Z,24.40
2018-07-09T08:21:48.218Z,24.40
2018-07-09T08:24:19.518Z,24.50
2018-07-09T08:26:51.848Z,24.60
2018-07-09T08:29:24.688Z,24.70
2018-07-09T08:31:56.748Z,24.90
2018-07-09T08:34:28.929Z,24.90
2018-07-09T08:37:01.219Z,24.80
2018-07-09T08:39:33.020Z,24.80
2018-07-09T08:42:04.726Z,24.60
2018-07-09T08:44:38.040Z,24.70
2018-07-09T08:47:09.999Z,24.70
2018-07-09T08:49:43.442Z,24.90
2018-07-09T08:52:15.299Z,25.00
2018-07-09T08:54:47.399Z,24.90
2018-07-09T08:57:19.866Z,25.00
2018-07-09T08:59:51.640Z,25.10
2018-07-09T09:02:24.099Z,25.00
2018-07-09T09:04:55.519Z,25.10
2018-07-09T09:07:27.520Z,25.10
2018-07-09T09:09:59.117Z,25.20
2018-07-09T09:12:30.773Z,25.20
2018-07-09T09:15:02.879Z,25.20
2018-07-09T09:17:34.679Z,25.20
2018-07-09T09:20:06.302Z,25.00
2018-07-09T09:22:38.899Z,25.10
2018-07-09T09:25:11.120Z,25.30
2018-07-09T09:27:43.860Z,25.20
2018-07-09T09:30:16.020Z,25.00
2018-07-09T09:32:47.721Z,24.90
2018-07-09T09:35:19.639Z,25.00
2018-07-09T09:37:52.000Z,25.00
2018-07-09T09:40:23.839Z,25.10
2018-07-09T09:42:55.200Z,25.30
2018-07-09T09:45:27.900Z,25.50
2018-07-09T09:47:59.500Z,25.60
2018-07-09T09:50:31.364Z,25.60
2018-07-09T09:53:03.505Z,25.60
2018-07-09T09:55:35.464Z,25.50
2018-07-09T09:58:07.565Z,25.60
2018-07-09T10:00:43.826Z,25.70
2018-07-09T10:03:15.605Z,25.80
2018-07-09T10:05:48.205Z,26.00
2018-07-09T10:08:20.266Z,26.00
2018-07-09T10:10:52.265Z,26.20
2018-07-09T10:13:24.204Z,26.40
2018-07-09T10:15:56.127Z,26.20
2018-07-09T10:18:28.125Z,26.30
2018-07-09T10:21:00.744Z,26.30
2018-07-09T10:23:32.473Z,26.50
2018-07-09T10:26:05.004Z,26.60
2018-07-09T10:28:37.367Z,26.70
2018-07-09T10:31:09.525Z,26.90
2018-07-09T10:33:41.704Z,27.00
2018-07-09T10:36:12.964Z,26.90
2018-07-09T10:38:43.933Z,27.20
2018-07-09T10:41:16.298Z,27.10
2018-07-09T10:43:47.977Z,27.20
2018-07-09T10:46:20.016Z,27.10
2018-07-09T10:48:51.145Z,27.10
2018-07-09T10:51:23.364Z,27.00
2018-07-09T10:53:55.234Z,26.90
2018-07-09T10:56:27.674Z,27.00
2018-07-09T10:58:59.333Z,27.10
2018-07-09T11:01:31.694Z,27.20
2018-07-09T11:04:03.975Z,27.20
2018-07-09T11:06:35.933Z,27.40
2018-07-09T11:09:09.214Z,27.80
2018-07-09T11:11:41.456Z,27.90
2018-07-09T11:14:12.715Z,28.10
2018-07-09T11:16:44.573Z,28.20
2018-07-09T11:21:48.215Z,28.30
2018-07-09T11:24:20.314Z,28.50
2018-07-09T11:26:52.313Z,28.70
2018-07-09T11:29:24.715Z,28.70
2018-07-09T11:31:57.233Z,28.80
2018-07-09T11:34:29.274Z,28.80
2018-07-09T11:37:01.914Z,28.80
2018-07-09T11:39:33.173Z,29.00
2018-07-09T11:42:05.620Z,29.30
2018-07-09T11:44:37.265Z,29.50
2018-07-09T11:47:09.595Z,29.50
2018-07-09T11:49:41.596Z,29.40
2018-07-09T11:52:14.027Z,29.50
2018-07-09T11:54:46.115Z,29.50
2018-07-09T11:57:18.477Z,29.60
2018-07-09T11:59:50.114Z,29.90
2018-07-09T12:02:22.473Z,29.90
2018-07-09T12:04:54.242Z,30.10
2018-07-09T12:07:27.116Z,30.10
2018-07-09T12:09:58.894Z,30.40
2018-07-09T12:12:31.020Z,30.70
2018-07-09T12:15:02.520Z,30.70
2018-07-09T12:17:35.595Z,30.80
2018-07-09T12:20:07.453Z,30.80
2018-07-09T12:22:39.874Z,30.80
2018-07-09T12:25:12.374Z,31.00
2018-07-09T12:27:44.474Z,31.30
2018-07-09T12:30:16.514Z,31.40
2018-07-09T12:32:48.797Z,31.40
2018-07-09T12:35:21.153Z,31.40
2018-07-09T12:53:07.738Z,31.60
2018-07-09T12:55:40.327Z,32.10
2018-07-09T12:58:13.298Z,32.20
2018-07-09T13:00:45.278Z,32.30
2018-07-09T13:03:17.258Z,32.30
2018-07-09T13:05:49.679Z,32.40
2018-07-09T13:08:21.778Z,32.40
2018-07-09T13:10:53.419Z,32.50
2018-07-09T13:13:25.658Z,32.50
2018-07-09T13:15:57.738Z,32.40
2018-07-09T13:18:29.289Z,32.30
2018-07-09T13:21:01.469Z,32.40
2018-07-09T13:23:33.487Z,32.60
2018-07-09T13:26:05.685Z,32.90
2018-07-09T13:28:37.274Z,33.10
2018-07-09T13:31:08.734Z,33.20
2018-07-09T13:33:40.288Z,33.30
2018-07-09T13:36:12.367Z,33.40
2018-07-09T13:38:44.207Z,33.70
2018-07-09T13:41:16.547Z,33.80
2018-07-09T13:43:48.567Z,33.90
2018-07-09T13:46:20.948Z,34.20
2018-07-09T13:48:52.527Z,34.30
2018-07-09T13:51:25.268Z,34.40
2018-07-09T13:53:57.457Z,34.60
2018-07-09T13:56:29.899Z,34.60
2018-07-09T13:59:02.838Z,34.60
2018-07-09T14:01:34.397Z,34.60
2018-07-09T14:04:07.638Z,34.70
2018-07-09T14:06:40.156Z,34.90
2018-07-09T14:09:12.417Z,34.90
2018-07-09T14:11:44.618Z,34.80
2018-07-09T14:14:16.537Z,34.90
2018-07-09T14:16:49.039Z,35.00
2018-07-09T14:19:31.297Z,35.00
2018-07-09T14:22:03.657Z,34.90
2018-07-09T14:24:35.357Z,34.90
2018-07-09T14:27:07.177Z,35.00
2018-07-09T14:29:39.131Z,35.20
2018-07-09T14:32:11.436Z,35.20
2018-07-09T14:34:43.419Z,35.30
2018-07-09T14:37:15.336Z,35.10
2018-07-09T14:39:48.077Z,34.90
2018-07-09T14:42:19.276Z,34.70
2018-07-09T14:44:52.037Z,34.60
2018-07-09T14:47:23.996Z,34.60
2018-07-09T14:49:56.620Z,34.50
2018-07-09T14:52:29.256Z,34.40
2018-07-09T14:55:02.518Z,34.20
2018-07-09T14:57:34.416Z,34.20
2018-07-09T15:00:07.516Z,34.10
2018-07-09T15:02:39.480Z,34.00
2018-07-09T15:05:11.496Z,33.80
2018-07-09T15:07:43.175Z,33.80
2018-07-09T15:10:14.556Z,33.80
2018-07-09T15:12:45.664Z,33.60
2018-07-09T15:15:18.224Z,33.50
2018-07-09T15:17:50.084Z,33.40
2018-07-09T15:20:22.343Z,33.30
2018-07-09T15:22:54.543Z,33.00
2018-07-09T15:25:26.524Z,33.00
2018-07-09T15:27:59.023Z,32.70
2018-07-09T15:30:30.744Z,32.50
2018-07-09T15:33:02.784Z,32.40
2018-07-09T15:35:35.163Z,32.20
2018-07-09T15:38:07.363Z,32.10
2018-07-09T15:40:37.744Z,31.90
2018-07-09T15:43:09.724Z,31.60
2018-07-09T15:45:41.578Z,31.50
2018-07-09T15:48:13.565Z,31.40
2018-07-09T15:50:45.624Z,31.30
2018-07-09T15:53:17.938Z,31.10
2018-07-09T15:55:49.903Z,31.00
2018-07-09T15:58:22.583Z,30.80
2018-07-09T16:00:54.565Z,30.80
2018-07-09T16:03:26.766Z,30.80
2018-07-09T16:05:58.863Z,30.80
2018-07-09T16:08:30.703Z,30.70
2018-07-09T16:11:00.631Z,30.60
2018-07-09T16:13:31.984Z,30.20
2018-07-09T16:16:03.584Z,30.10
2018-07-09T16:18:35.026Z,30.00
2018-07-09T16:21:07.663Z,30.00
2018-07-09T16:23:39.067Z,29.90
2018-07-09T16:26:11.655Z,29.80
2018-07-09T16:28:44.080Z,29.70
2018-07-09T16:31:16.125Z,29.60
2018-07-09T16:33:47.505Z,29.70
2018-07-09T16:36:18.838Z,29.70
2018-07-09T16:38:51.303Z,29.70
2018-07-09T16:41:23.544Z,29.60
2018-07-09T16:43:56.265Z,29.50
2018-07-09T16:46:28.843Z,29.50
2018-07-09T16:49:00.342Z,29.40
2018-07-09T16:51:32.124Z,29.40
2018-07-09T16:54:03.985Z,29.30
2018-07-09T16:56:36.283Z,29.30
2018-07-09T16:59:07.985Z,29.30
2018-07-09T17:01:40.123Z,29.30
2018-07-09T17:04:11.883Z,29.20
2018-07-09T17:06:44.166Z,29.10
2018-07-09T17:09:15.747Z,29.10
2018-07-09T17:11:47.985Z,29.10
2018-07-09T17:14:20.448Z,29.10
2018-07-09T17:16:52.384Z,29.00
2018-07-09T17:19:23.904Z,29.00
2018-07-09T17:21:55.864Z,29.00
2018-07-09T17:24:28.203Z,28.80
2018-07-09T17:27:00.197Z,28.70
2018-07-09T17:29:32.403Z,28.70
2018-07-09T17:32:05.222Z,28.70
2018-07-09T17:34:37.124Z,28.60
2018-07-09T17:37:09.645Z,28.60
2018-07-09T17:39:40.685Z,28.60
2018-07-09T17:42:12.786Z,28.60
2018-07-09T17:44:45.484Z,28.50
2018-07-09T17:47:16.944Z,28.40
2018-07-09T17:49:49.940Z,28.40
2018-07-09T17:52:21.963Z,28.50
2018-07-09T17:54:53.903Z,28.50
2018-07-09T17:57:26.664Z,28.50
2018-07-09T17:59:58.710Z,28.50
2018-07-09T18:02:31.024Z,28.50
2018-07-09T18:05:03.304Z,28.50
2018-07-09T18:07:35.263Z,28.50
2018-07-09T18:10:08.192Z,28.50
2018-07-09T18:12:40.085Z,28.40
2018-07-09T18:15:12.504Z,28.40
2018-07-09T18:17:44.684Z,28.40
2018-07-09T18:20:16.763Z,28.30
2018-07-09T18:22:49.043Z,28.30
2018-07-09T18:25:21.132Z,28.30
2018-07-09T18:27:53.483Z,28.30
2018-07-09T18:30:25.324Z,28.30
2018-07-09T18:32:57.031Z,28.30
2018-07-09T18:35:29.122Z,28.20
2018-07-09T18:38:01.424Z,28.20
2018-07-09T18:40:34.384Z,28.10
2018-07-09T18:43:06.844Z,28.00
2018-07-09T18:45:38.668Z,28.00
2018-07-09T18:48:10.923Z,27.90
2018-07-09T18:50:43.024Z,27.90
2018-07-09T18:53:14.611Z,27.90
2018-07-09T18:55:47.363Z,27.90
2018-07-09T18:58:19.679Z,27.80
2018-07-09T19:00:52.823Z,27.70
2018-07-09T19:03:24.629Z,27.60
2018-07-09T19:07:07.344Z,27.50
2018-07-09T19:09:39.743Z,27.30
2018-07-09T19:12:11.823Z,27.10
2018-07-09T19:14:45.745Z,27.00
2018-07-09T19:17:57.803Z,26.80
2018-07-09T19:20:39.684Z,26.80
2018-07-09T19:23:09.763Z,26.70
2018-07-09T19:25:39.944Z,26.60
2018-07-09T19:28:08.973Z,26.60
2018-07-09T19:30:38.683Z,26.50
2018-07-09T19:33:07.966Z,26.40
2018-07-09T19:38:07.223Z,26.30
2018-07-09T19:40:36.203Z,26.20
2018-07-09T19:43:05.303Z,26.10
2018-07-09T19:45:36.347Z,26.00
2018-07-09T19:48:05.804Z,26.00
2018-07-09T19:50:34.904Z,25.90
2018-07-09T19:53:04.024Z,25.90
2018-07-09T19:55:33.764Z,25.80
2018-07-09T19:58:03.603Z,25.70
2018-07-09T20:00:32.650Z,25.60
2018-07-09T20:03:01.943Z,25.60
2018-07-09T20:05:31.546Z,25.50
2018-07-09T20:08:00.403Z,25.40
2018-07-09T20:10:33.864Z,25.30
2018-07-09T20:13:05.545Z,25.40
2018-07-09T20:15:39.164Z,25.40
2018-07-09T20:18:08.083Z,25.30
2018-07-09T20:20:37.508Z,25.30
2018-07-09T20:23:07.611Z,25.20
2018-07-09T20:25:37.024Z,25.20
2018-07-09T20:28:06.744Z,25.10
2018-07-09T20:30:35.624Z,25.10
2018-07-09T20:33:05.386Z,25.10
2018-07-09T20:35:34.684Z,25.10
2018-07-09T20:38:04.844Z,25.10
2018-07-09T20:40:33.884Z,25.00
2018-07-09T20:43:03.064Z,25.00
2018-07-09T20:45:32.543Z,24.90
2018-07-09T20:48:02.044Z,24.90
2018-07-09T20:50:31.405Z,25.00
2018-07-09T20:53:00.809Z,24.90
2018-07-09T20:55:30.765Z,24.80
2018-07-09T20:58:00.846Z,24.80
2018-07-09T21:00:30.304Z,24.90
2018-07-09T21:02:59.163Z,24.90
2018-07-09T21:05:28.845Z,24.90
2018-07-09T21:07:58.363Z,24.80
2018-07-09T21:10:28.304Z,24.70
2018-07-09T21:12:58.483Z,24.60
2018-07-09T21:15:29.869Z,24.60
2018-07-09T21:17:59.440Z,24.50
2018-07-09T21:20:28.680Z,24.50
2018-07-09T21:22:57.880Z,24.60
2018-07-09T21:25:27.461Z,24.50
2018-07-09T21:27:57.222Z,24.50
2018-07-09T21:30:26.461Z,24.40
2018-07-09T21:32:55.723Z,24.30
2018-07-09T21:35:25.223Z,24.30
2018-07-09T21:37:53.997Z,24.40
2018-07-09T21:40:23.462Z,24.30
2018-07-09T21:42:53.104Z,24.30
2018-07-09T21:45:22.204Z,24.30
2018-07-09T21:47:59.216Z,24.40
2018-07-09T21:50:20.922Z,24.40
2018-07-09T21:52:50.345Z,24.30
2018-07-09T21:55:19.483Z,24.20
2018-07-09T21:57:48.822Z,24.10
2018-07-09T22:00:17.963Z,24.00
2018-07-09T22:02:47.043Z,23.90
2018-07-09T22:05:16.802Z,24.00
2018-07-09T22:07:46.243Z,23.90
2018-07-09T22:10:15.686Z,23.90
2018-07-09T22:12:44.965Z,23.90
2018-07-09T22:15:13.923Z,23.90
2018-07-09T22:17:43.484Z,23.90
2018-07-09T22:20:13.522Z,23.90
2018-07-09T22:22:43.242Z,23.90
2018-07-09T22:25:13.007Z,23.80
2018-07-09T22:27:42.362Z,23.80
2018-07-09T22:30:11.782Z,23.80
2018-07-09T22:32:43.563Z,23.80
2018-07-09T22:35:15.922Z,23.70
2018-07-09T22:37:47.723Z,23.70
2018-07-09T22:40:20.345Z,23.70
2018-07-09T22:42:53.102Z,23.60
2018-07-09T22:45:24.822Z,23.60
2018-07-09T22:47:57.122Z,23.60
2018-07-09T22:50:29.023Z,23.70
2018-07-09T22:53:01.163Z,23.60
2018-07-09T22:55:43.422Z,23.50
2018-07-09T22:58:16.003Z,23.50
2018-07-09T23:00:47.823Z,23.50
2018-07-09T23:03:20.722Z,23.40
2018-07-09T23:05:52.463Z,23.40
2018-07-09T23:13:23.722Z,23.50
2018-07-09T23:18:08.687Z,23.40
2018-07-09T23:22:57.242Z,23.20
2018-07-09T23:25:27.043Z,23.10
2018-07-09T23:27:55.823Z,23.10
2018-07-09T23:30:24.983Z,23.20
2018-07-09T23:32:54.503Z,23.10
2018-07-09T23:35:24.263Z,23.10
2018-07-09T23:37:54.023Z,23.10
2018-07-09T23:40:23.505Z,23.10
2018-07-09T23:42:53.262Z,23.10
2018-07-09T23:45:23.244Z,23.00
2018-07-09T23:47:52.283Z,23.10
2018-07-09T23:50:21.122Z,23.20
2018-07-09T23:52:50.023Z,23.10
2018-07-09T23:55:19.263Z,23.10
